createdAt,value
2017-11-25T00:01:41.379Z,10.77
2017-11-25T00:04:08.843Z,11.50
2017-11-25T00:06:37.075Z,10.40
2017-11-25T00:09:04.552Z,9.75
2017-11-25T00:11:32.035Z,12.32
2017-11-25T00:14:00.274Z,11.52
2017-11-25T00:16:27.756Z,12.05
2017-11-25T00:18:55.222Z,11.20
2017-11-25T00:21:22.771Z,12.45
2017-11-25T00:23:50.234Z,12.00
2017-11-25T00:26:17.776Z,11.48
2017-11-25T00:28:45.261Z,11.40
2017-11-25T00:31:13.508Z,11.10
2017-11-25T00:33:40.989Z,10.68
2017-11-25T00:36:09.246Z,11.70
2017-11-25T00:38:36.709Z,11.90
2017-11-25T00:41:04.173Z,12.65
2017-11-25T00:43:31.671Z,11.27
2017-11-25T00:45:59.133Z,11.07
2017-11-25T00:48:26.651Z,11.32
2017-11-25T00:50:54.886Z,11.27
2017-11-25T00:53:22.368Z,11.88
2017-11-25T00:55:49.842Z,11.07
2017-11-25T00:58:18.094Z,11.40
2017-11-25T01:00:45.569Z,11.68
2017-11-25T01:03:13.826Z,9.30
2017-11-25T01:05:41.341Z,11.02
2017-11-25T01:08:08.863Z,11.38
2017-11-25T01:10:36.423Z,11.07
2017-11-25T01:13:04.659Z,11.32
2017-11-25T01:15:32.139Z,11.15
2017-11-25T01:17:59.697Z,10.27
2017-11-25T01:20:27.170Z,11.68
2017-11-25T01:22:55.405Z,11.00
2017-11-25T01:25:22.981Z,11.25
2017-11-25T01:27:50.441Z,11.82
2017-11-25T01:30:18.008Z,10.45
2017-11-25T01:32:45.548Z,10.07
2017-11-25T01:35:13.023Z,11.00
2017-11-25T01:37:40.495Z,10.13
2017-11-25T01:40:08.755Z,11.12
2017-11-25T01:42:37.000Z,10.50
2017-11-25T01:45:04.466Z,9.43
2017-11-25T01:47:31.937Z,9.63
2017-11-25T01:49:59.409Z,11.82
2017-11-25T01:52:27.679Z,10.00
2017-11-25T01:54:55.231Z,12.25
2017-11-25T01:57:22.789Z,11.38
2017-11-25T01:59:50.263Z,11.32
2017-11-25T02:02:18.496Z,12.18
2017-11-25T02:04:46.082Z,11.15
2017-11-25T02:07:13.548Z,12.43
2017-11-25T02:09:41.016Z,12.30
2017-11-25T02:12:09.252Z,11.80
2017-11-25T02:14:36.823Z,10.98
2017-11-25T02:17:04.289Z,11.80
2017-11-25T02:19:31.751Z,12.40
2017-11-25T02:22:00.023Z,11.30
2017-11-25T02:24:27.514Z,11.45
2017-11-25T02:26:54.995Z,10.80
2017-11-25T02:29:22.467Z,12.75
2017-11-25T02:31:49.941Z,12.90
2017-11-25T02:34:17.398Z,12.02
2017-11-25T02:36:44.950Z,11.07
2017-11-25T02:39:12.515Z,11.05
2017-11-25T02:41:39.986Z,10.00
2017-11-25T02:44:08.222Z,11.23
2017-11-25T02:46:35.728Z,10.27
2017-11-25T02:49:03.981Z,11.25
2017-11-25T02:51:31.442Z,11.25
2017-11-25T02:53:59.015Z,11.52
2017-11-25T02:56:26.549Z,10.13
2017-11-25T02:58:54.031Z,12.05
2017-11-25T03:01:22.287Z,10.80
2017-11-25T03:03:49.847Z,11.35
2017-11-25T03:06:17.325Z,10.18
2017-11-25T03:08:45.563Z,11.15
2017-11-25T03:11:13.030Z,11.27
2017-11-25T03:13:40.527Z,11.48
2017-11-25T03:16:07.999Z,11.30
2017-11-25T03:18:35.470Z,11.38
2017-11-25T03:21:02.948Z,10.32
2017-11-25T03:23:30.406Z,11.07
2017-11-25T03:25:57.875Z,10.38
2017-11-25T03:28:25.468Z,11.50
2017-11-25T03:30:53.705Z,9.65
2017-11-25T03:33:21.163Z,10.55
2017-11-25T03:35:48.722Z,9.98
2017-11-25T03:38:16.183Z,11.73
2017-11-25T03:40:43.683Z,11.68
2017-11-25T03:43:11.152Z,11.32
2017-11-25T03:45:38.617Z,11.25
2017-11-25T03:48:06.089Z,11.85
2017-11-25T03:50:33.667Z,12.40
2017-11-25T03:53:01.223Z,12.05
2017-11-25T03:55:29.499Z,11.90
2017-11-25T03:57:57.066Z,11.27
2017-11-25T04:00:25.355Z,11.40
2017-11-25T04:02:53.603Z,12.70
2017-11-25T04:05:21.176Z,11.07
2017-11-25T04:07:48.726Z,11.12
2017-11-25T04:10:16.189Z,12.55
2017-11-25T04:12:43.751Z,11.68
2017-11-25T04:15:11.226Z,12.77
2017-11-25T04:17:39.464Z,11.95
2017-11-25T04:20:06.938Z,12.23
2017-11-25T04:22:34.494Z,11.85
2017-11-25T04:25:01.968Z,12.02
2017-11-25T04:27:30.280Z,13.32
2017-11-25T04:29:57.758Z,11.35
2017-11-25T04:32:25.248Z,13.32
2017-11-25T04:34:52.743Z,12.50
2017-11-25T04:37:20.266Z,13.52
2017-11-25T04:39:47.722Z,12.60
2017-11-25T04:42:15.280Z,13.43
2017-11-25T04:44:42.739Z,12.37
2017-11-25T04:47:10.291Z,13.85
2017-11-25T04:49:37.755Z,13.75
2017-11-25T04:52:06.029Z,13.32
2017-11-25T04:54:33.484Z,14.57
2017-11-25T04:57:01.860Z,12.00
2017-11-25T04:59:29.324Z,13.20
2017-11-25T05:01:57.592Z,13.00
2017-11-25T05:04:25.067Z,13.35
2017-11-25T05:06:53.297Z,13.02
2017-11-25T05:09:20.783Z,13.80
2017-11-25T05:11:48.255Z,15.50
2017-11-25T05:14:16.498Z,12.88
2017-11-25T05:16:43.975Z,12.27
2017-11-25T05:19:12.223Z,13.90
2017-11-25T05:21:39.709Z,13.90
2017-11-25T05:24:07.984Z,13.27
2017-11-25T05:26:36.207Z,14.57
2017-11-25T05:29:03.680Z,14.35
2017-11-25T05:31:31.150Z,13.15
2017-11-25T05:33:58.622Z,14.30
2017-11-25T05:36:26.091Z,14.15
2017-11-25T05:38:54.330Z,14.60
2017-11-25T05:41:21.800Z,13.75
2017-11-25T05:43:50.700Z,13.77
2017-11-25T05:46:18.166Z,14.13
2017-11-25T05:48:46.401Z,13.65
2017-11-25T05:51:13.898Z,14.23
2017-11-25T05:53:42.143Z,13.35
2017-11-25T05:56:09.611Z,13.35
2017-11-25T05:58:37.082Z,11.50
2017-11-25T06:01:04.544Z,13.07
2017-11-25T06:03:32.796Z,12.55
2017-11-25T06:06:00.267Z,13.40
2017-11-25T06:08:28.590Z,14.95
2017-11-25T06:10:56.109Z,12.65
2017-11-25T06:13:24.362Z,12.35
2017-11-25T06:15:52.650Z,12.88
2017-11-25T06:18:20.135Z,12.90
2017-11-25T06:20:48.377Z,12.32
2017-11-25T06:23:15.841Z,14.05
2017-11-25T06:25:43.315Z,12.93
2017-11-25T06:28:11.546Z,12.73
2017-11-25T06:30:39.028Z,12.30
2017-11-25T06:33:06.498Z,10.75
2017-11-25T06:35:34.759Z,12.43
2017-11-25T06:38:02.239Z,12.32
2017-11-25T06:40:30.492Z,10.90
2017-11-25T06:42:58.055Z,10.25
2017-11-25T06:45:25.520Z,10.85
2017-11-25T06:47:53.767Z,10.07
2017-11-25T06:50:21.230Z,8.80
2017-11-25T06:52:48.715Z,10.40
2017-11-25T06:55:16.979Z,9.85
2017-11-25T06:57:45.219Z,10.23
2017-11-25T07:00:12.683Z,9.32
2017-11-25T07:02:40.171Z,9.48
2017-11-25T07:05:08.410Z,10.48
2017-11-25T07:07:35.872Z,9.75
2017-11-25T07:10:03.351Z,10.20
2017-11-25T07:12:30.898Z,9.25
2017-11-25T07:14:58.375Z,10.02
2017-11-25T07:17:26.626Z,8.88
2017-11-25T07:19:54.102Z,9.70
2017-11-25T07:22:21.585Z,9.13
2017-11-25T07:24:49.048Z,9.98
2017-11-25T07:27:16.574Z,8.45
2017-11-25T07:29:44.036Z,8.27
2017-11-25T07:32:12.270Z,9.27
2017-11-25T07:34:39.775Z,8.20
2017-11-25T07:37:07.250Z,8.80
2017-11-25T07:39:34.732Z,9.18
2017-11-25T07:42:02.195Z,8.13
2017-11-25T07:44:29.656Z,9.60
2017-11-25T07:46:57.114Z,9.93
2017-11-25T07:49:24.695Z,10.27
2017-11-25T07:51:52.151Z,8.52
2017-11-25T07:54:19.706Z,7.45
2017-11-25T07:56:47.231Z,8.68
2017-11-25T07:59:14.708Z,7.85
2017-11-25T08:01:42.183Z,7.85
2017-11-25T08:04:09.648Z,7.40
2017-11-25T08:06:37.884Z,7.85
2017-11-25T08:09:05.347Z,7.28
2017-11-25T08:11:32.814Z,7.20
2017-11-25T08:14:00.284Z,6.70
2017-11-25T08:16:27.753Z,7.30
2017-11-25T08:18:55.995Z,6.03
2017-11-25T08:21:23.476Z,6.15
2017-11-25T08:23:50.935Z,5.87
2017-11-25T08:26:18.407Z,6.18
2017-11-25T08:28:46.714Z,5.97
2017-11-25T08:31:14.175Z,5.30
2017-11-25T08:33:41.635Z,5.10
2017-11-25T08:36:09.091Z,5.75
2017-11-25T08:38:36.555Z,5.25
2017-11-25T08:41:04.050Z,4.80
2017-11-25T08:43:31.519Z,4.45
2017-11-25T08:45:59.743Z,4.55
2017-11-25T08:48:27.341Z,4.93
2017-11-25T08:50:54.960Z,4.82
2017-11-25T08:53:22.442Z,5.50
2017-11-25T08:55:49.909Z,4.57
2017-11-25T08:58:18.898Z,4.68
2017-11-25T09:00:46.367Z,4.50
2017-11-25T09:03:13.823Z,3.95
2017-11-25T09:05:41.291Z,4.43
2017-11-25T09:08:09.506Z,3.90
2017-11-25T09:10:37.016Z,4.45
2017-11-25T09:13:04.472Z,3.65
2017-11-25T09:15:32.713Z,3.35
2017-11-25T09:18:00.350Z,3.70
2017-11-25T09:20:27.819Z,3.30
2017-11-25T09:22:55.284Z,3.70
2017-11-25T09:25:22.757Z,3.78
2017-11-25T09:27:50.584Z,3.80
2017-11-25T09:30:18.208Z,3.50
2017-11-25T09:32:46.726Z,3.53
2017-11-25T09:35:14.227Z,3.10
2017-11-25T09:37:42.157Z,2.80
2017-11-25T09:40:10.142Z,3.20
2017-11-25T09:42:37.677Z,3.10
2017-11-25T09:45:05.136Z,3.50
2017-11-25T09:47:32.607Z,3.67
2017-11-25T09:50:00.064Z,4.15
2017-11-25T09:52:27.535Z,5.20
2017-11-25T09:54:54.996Z,5.45
2017-11-25T09:57:22.472Z,4.72
2017-11-25T09:59:51.444Z,4.60
2017-11-25T10:02:18.904Z,4.82
2017-11-25T10:04:46.472Z,5.28
2017-11-25T10:07:14.700Z,5.20
2017-11-25T10:09:42.187Z,4.43
2017-11-25T10:12:09.659Z,4.20
2017-11-25T10:14:37.206Z,4.82
2017-11-25T10:17:04.684Z,4.20
2017-11-25T10:19:32.179Z,3.80
2017-11-25T10:21:59.647Z,3.25
2017-11-25T10:24:27.111Z,3.30
2017-11-25T10:26:55.360Z,3.00
2017-11-25T10:29:22.886Z,2.65
2017-11-25T10:31:50.347Z,2.05
2017-11-25T10:34:17.904Z,2.10
2017-11-25T10:36:45.368Z,1.87
2017-11-25T10:39:13.599Z,2.20
2017-11-25T10:41:41.079Z,1.45
2017-11-25T10:44:08.643Z,1.75
2017-11-25T10:46:36.109Z,1.20
2017-11-25T10:49:03.663Z,2.12
2017-11-25T10:51:31.126Z,1.55
2017-11-25T10:53:59.403Z,0.90
2017-11-25T10:56:27.639Z,1.40
2017-11-25T10:58:55.124Z,1.40
2017-11-25T11:01:22.583Z,1.40
2017-11-25T11:03:50.047Z,1.15
2017-11-25T11:06:18.288Z,1.40
2017-11-25T11:08:45.751Z,1.75
2017-11-25T11:11:13.216Z,2.60
2017-11-25T11:13:40.691Z,2.12
2017-11-25T11:16:08.143Z,2.50
2017-11-25T11:18:35.602Z,2.20
2017-11-25T11:21:03.064Z,2.05
2017-11-25T11:23:31.380Z,1.27
2017-11-25T11:25:58.941Z,2.17
2017-11-25T11:28:26.551Z,1.55
2017-11-25T11:30:55.544Z,1.60
2017-11-25T11:33:23.772Z,2.00
2017-11-25T11:35:51.274Z,1.92
2017-11-25T11:38:18.741Z,1.85
2017-11-25T11:40:46.291Z,1.80
2017-11-25T11:43:13.843Z,2.05
2017-11-25T11:45:41.355Z,1.70
2017-11-25T11:48:08.815Z,4.12
2017-11-25T11:50:36.279Z,2.15
2017-11-25T11:53:03.735Z,1.30
2017-11-25T11:55:31.196Z,1.35
2017-11-25T11:57:58.653Z,1.77
2017-11-25T12:00:26.131Z,1.73
2017-11-25T12:02:53.587Z,1.25
2017-11-25T12:05:21.047Z,1.20
2017-11-25T12:07:48.502Z,1.73
2017-11-25T12:10:15.971Z,1.15
2017-11-25T12:12:43.442Z,1.62
2017-11-25T12:15:11.671Z,0.85
2017-11-25T12:17:39.128Z,0.70
2017-11-25T12:20:06.612Z,1.20
2017-11-25T12:22:34.062Z,1.05
2017-11-25T12:25:01.628Z,1.20
2017-11-25T12:27:29.095Z,1.45
2017-11-25T12:29:56.555Z,1.30
2017-11-25T12:32:24.810Z,1.00
2017-11-25T12:34:52.272Z,1.83
2017-11-25T12:37:19.738Z,1.00
2017-11-25T12:39:47.200Z,1.70
2017-11-25T12:42:15.432Z,1.30
2017-11-25T12:44:42.923Z,1.00
2017-11-25T12:47:10.479Z,0.80
2017-11-25T12:49:37.955Z,1.00
2017-11-25T12:52:06.189Z,1.08
2017-11-25T12:54:33.735Z,0.85
2017-11-25T12:57:01.123Z,1.25
2017-11-25T12:59:28.691Z,1.00
2017-11-25T13:01:56.943Z,1.00
2017-11-25T13:04:24.417Z,1.00
2017-11-25T13:06:51.975Z,1.30
2017-11-25T13:09:19.530Z,1.65
2017-11-25T13:11:47.020Z,1.10
2017-11-25T13:14:14.475Z,0.80
2017-11-25T13:16:42.018Z,0.85
2017-11-25T13:19:10.259Z,0.85
2017-11-25T13:21:37.723Z,0.90
2017-11-25T13:24:05.244Z,0.88
2017-11-25T13:26:32.695Z,1.10
2017-11-25T13:29:00.203Z,0.90
2017-11-25T13:31:27.763Z,1.00
2017-11-25T13:33:55.227Z,1.40
2017-11-25T13:36:22.694Z,0.93
2017-11-25T13:38:50.955Z,1.02
2017-11-25T13:41:18.514Z,1.10
2017-11-25T13:43:46.040Z,1.40
2017-11-25T13:46:13.500Z,0.90
2017-11-25T13:48:40.964Z,1.35
2017-11-25T13:51:08.432Z,1.15
2017-11-25T13:53:36.294Z,1.52
2017-11-25T13:56:03.771Z,2.35
2017-11-25T13:58:31.236Z,2.47
2017-11-25T14:00:59.692Z,1.60
2017-11-25T14:03:27.155Z,1.65
2017-11-25T14:05:54.624Z,2.05
2017-11-25T14:08:22.079Z,1.30
2017-11-25T14:10:50.394Z,1.10
2017-11-25T14:13:17.849Z,1.35
2017-11-25T14:15:45.466Z,1.27
2017-11-25T14:18:13.835Z,1.20
2017-11-25T14:20:41.342Z,1.65
2017-11-25T14:23:08.909Z,1.58
2017-11-25T14:25:36.412Z,1.48
2017-11-25T14:28:03.875Z,1.33
2017-11-25T14:30:31.433Z,1.40
2017-11-25T14:32:58.995Z,2.35
2017-11-25T14:35:26.455Z,1.25
2017-11-25T14:37:53.919Z,1.15
2017-11-25T14:40:22.138Z,2.08
2017-11-25T14:42:49.637Z,0.85
2017-11-25T14:45:17.091Z,1.48
2017-11-25T14:47:44.650Z,1.08
2017-11-25T14:50:12.150Z,1.10
2017-11-25T14:52:39.671Z,1.95
2017-11-25T14:55:07.226Z,1.02
2017-11-25T14:57:34.804Z,2.25
2017-11-25T15:00:03.064Z,1.10
2017-11-25T15:02:30.616Z,1.15
2017-11-25T15:04:58.167Z,1.20
2017-11-25T15:07:25.624Z,1.50
2017-11-25T15:09:53.193Z,1.27
2017-11-25T15:12:20.804Z,1.05
2017-11-25T15:14:48.279Z,1.40
2017-11-25T15:17:15.760Z,1.40
2017-11-25T15:19:43.231Z,1.30
2017-11-25T15:22:10.688Z,1.20
2017-11-25T15:24:38.242Z,0.90
2017-11-25T15:27:05.790Z,1.90
2017-11-25T15:29:33.258Z,1.27
2017-11-25T15:32:00.716Z,1.10
2017-11-25T15:34:28.185Z,1.50
2017-11-25T15:36:56.494Z,1.20
2017-11-25T15:39:23.968Z,1.25
2017-11-25T15:41:51.431Z,1.20
2017-11-25T15:44:18.888Z,1.50
2017-11-25T15:46:46.379Z,5.20
2017-11-25T15:49:13.836Z,1.50
2017-11-25T15:51:41.299Z,3.50
2017-11-25T15:54:09.542Z,2.70
2017-11-25T15:56:37.009Z,2.65
2017-11-25T15:59:04.476Z,1.50
2017-11-25T16:01:31.947Z,1.70
2017-11-25T16:04:00.178Z,1.73
2017-11-25T16:06:27.642Z,2.20
2017-11-25T16:08:55.103Z,2.22
2017-11-25T16:11:22.595Z,1.50
2017-11-25T16:13:50.875Z,1.75
2017-11-25T16:16:19.100Z,1.23
2017-11-25T16:18:46.633Z,1.50
2017-11-25T16:21:14.087Z,1.10
2017-11-25T16:23:41.592Z,2.87
2017-11-25T16:28:41.783Z,2.92
2017-11-25T16:31:09.247Z,1.58
2017-11-25T16:33:37.447Z,2.25
2017-11-25T16:36:04.906Z,2.22
2017-11-25T16:38:32.375Z,3.75
2017-11-25T16:40:59.827Z,2.70
2017-11-25T16:43:27.291Z,2.75
2017-11-25T16:45:54.752Z,2.00
2017-11-25T16:48:23.715Z,2.40
2017-11-25T16:50:51.179Z,2.05
2017-11-25T16:53:18.891Z,1.75
2017-11-25T16:55:46.351Z,1.90
2017-11-25T16:58:13.833Z,1.70
2017-11-25T17:00:41.323Z,1.87
2017-11-25T17:03:08.880Z,1.73
2017-11-25T17:05:36.345Z,2.10
2017-11-25T17:08:03.801Z,1.92
2017-11-25T17:10:31.265Z,2.08
2017-11-25T17:12:58.728Z,1.87
2017-11-25T17:15:26.987Z,2.03
2017-11-25T17:17:54.451Z,2.17
2017-11-25T17:20:21.996Z,2.28
2017-11-25T17:22:49.558Z,1.95
2017-11-25T17:25:17.118Z,2.33
2017-11-25T17:27:44.693Z,2.10
2017-11-25T17:30:12.951Z,2.90
2017-11-25T17:32:40.411Z,2.10
2017-11-25T17:35:07.870Z,2.15
2017-11-25T17:37:35.424Z,2.08
2017-11-25T17:40:02.880Z,2.22
2017-11-25T17:42:30.357Z,2.50
2017-11-25T17:44:58.583Z,2.53
2017-11-25T17:47:26.046Z,2.30
2017-11-25T17:49:53.498Z,2.92
2017-11-25T17:52:20.967Z,2.95
2017-11-25T17:54:48.433Z,2.50
2017-11-25T17:57:15.999Z,3.03
2017-11-25T17:59:43.464Z,2.90
2017-11-25T18:02:10.927Z,3.20
2017-11-25T18:04:39.192Z,2.80
2017-11-25T18:07:06.751Z,3.40
2017-11-25T18:09:34.207Z,4.15
2017-11-25T18:12:01.663Z,4.32
2017-11-25T18:14:29.210Z,4.20
2017-11-25T18:16:56.669Z,4.35
2017-11-25T18:19:24.141Z,4.43
2017-11-25T18:21:52.368Z,4.75
2017-11-25T18:24:19.832Z,4.78
2017-11-25T18:26:47.320Z,5.55
2017-11-25T18:29:14.811Z,5.93
2017-11-25T18:31:42.346Z,6.80
2017-11-25T18:34:09.806Z,7.47
2017-11-25T18:36:38.032Z,6.00
2017-11-25T18:39:05.539Z,7.10
2017-11-25T18:41:33.766Z,7.07
2017-11-25T18:44:01.380Z,7.75
2017-11-25T18:46:29.615Z,8.20
2017-11-25T18:48:57.083Z,7.50
2017-11-25T18:51:24.642Z,8.07
2017-11-25T18:53:52.229Z,8.50
2017-11-25T18:56:19.768Z,7.43
2017-11-25T18:58:47.243Z,7.50
2017-11-25T19:01:15.485Z,7.40
2017-11-25T19:03:42.944Z,7.90
2017-11-25T19:06:10.407Z,7.95
2017-11-25T19:08:37.879Z,8.35
2017-11-25T19:11:05.355Z,6.75
2017-11-25T19:13:33.583Z,7.62
2017-11-25T19:16:01.059Z,6.90
2017-11-25T19:18:28.538Z,7.62
2017-11-25T19:20:56.767Z,7.80
2017-11-25T19:23:24.252Z,7.75
2017-11-25T19:25:51.752Z,8.05
2017-11-25T19:28:19.264Z,7.03
2017-11-25T19:30:46.816Z,7.25
2017-11-25T19:33:14.382Z,7.62
2017-11-25T19:35:41.887Z,7.80
2017-11-25T19:38:09.365Z,8.00
2017-11-25T19:40:36.826Z,7.60
2017-11-25T19:43:04.298Z,6.57
2017-11-25T19:45:31.800Z,7.50
2017-11-25T19:47:59.267Z,7.10
2017-11-25T19:50:26.814Z,7.55
2017-11-25T19:52:54.281Z,6.57
2017-11-25T19:55:21.740Z,7.68
2017-11-25T19:57:49.261Z,7.15
2017-11-25T20:00:17.533Z,10.00
2017-11-25T20:02:45.015Z,8.00
2017-11-25T20:05:12.487Z,8.35
2017-11-25T20:07:39.965Z,8.77
2017-11-25T20:10:07.457Z,10.50
2017-11-25T20:12:34.915Z,9.30
2017-11-25T20:15:03.896Z,9.40
2017-11-25T20:17:31.454Z,10.00
2017-11-25T20:19:58.931Z,9.55
2017-11-25T20:22:26.387Z,8.93
2017-11-25T20:24:53.845Z,9.13
2017-11-25T20:27:22.115Z,9.95
2017-11-25T20:29:49.550Z,8.77
2017-11-25T20:32:17.187Z,8.25
2017-11-25T20:34:44.694Z,9.20
2017-11-25T20:37:12.919Z,7.80
2017-11-25T20:39:40.411Z,9.07
2017-11-25T20:42:07.972Z,9.82
2017-11-25T20:44:35.531Z,8.82
2017-11-25T20:47:03.087Z,9.02
2017-11-25T20:49:30.647Z,9.07
2017-11-25T20:51:58.203Z,9.13
2017-11-25T20:54:26.130Z,8.20
2017-11-25T20:56:53.735Z,8.20
2017-11-25T20:59:21.195Z,8.15
2017-11-25T21:01:48.654Z,7.53
2017-11-25T21:04:16.983Z,7.85
2017-11-25T21:06:44.483Z,7.68
2017-11-25T21:09:11.943Z,6.75
2017-11-25T21:11:39.411Z,8.25
2017-11-25T21:14:07.665Z,8.77
2017-11-25T21:16:35.135Z,7.22
2017-11-25T21:19:02.689Z,7.70
2017-11-25T21:21:30.155Z,8.10
2017-11-25T21:23:57.633Z,11.12
2017-11-25T21:26:25.211Z,8.23
2017-11-25T21:28:52.727Z,8.35
2017-11-25T21:31:20.978Z,7.10
2017-11-25T21:33:48.500Z,8.65
2017-11-25T21:36:16.060Z,8.90
2017-11-25T21:38:43.619Z,7.90
2017-11-25T21:41:11.181Z,9.77
2017-11-25T21:43:38.696Z,9.18
2017-11-25T21:46:06.932Z,9.77
2017-11-25T21:48:34.406Z,10.10
2017-11-25T21:51:01.862Z,9.82
2017-11-25T21:53:29.331Z,9.73
2017-11-25T21:55:56.882Z,8.73
2017-11-25T21:58:24.454Z,10.10
2017-11-25T22:00:51.920Z,9.18
2017-11-25T22:03:20.263Z,9.75
2017-11-25T22:05:47.806Z,9.55
2017-11-25T22:08:15.305Z,11.55
2017-11-25T22:10:42.813Z,14.45
2017-11-25T22:13:10.471Z,10.77
2017-11-25T22:15:37.945Z,10.35
2017-11-25T22:18:05.407Z,9.77
2017-11-25T22:20:32.881Z,10.50
2017-11-25T22:23:00.352Z,11.20
2017-11-25T22:25:27.828Z,11.10
2017-11-25T22:27:55.300Z,11.27
2017-11-25T22:30:22.840Z,12.20
2017-11-25T22:32:51.068Z,12.15
2017-11-25T22:35:18.539Z,10.55
2017-11-25T22:37:46.103Z,12.30
2017-11-25T22:40:13.586Z,11.35
2017-11-25T22:42:41.842Z,11.40
2017-11-25T22:45:09.323Z,11.93
2017-11-25T22:47:36.787Z,11.90
2017-11-25T22:50:04.248Z,11.77
2017-11-25T22:52:31.719Z,11.65
2017-11-25T22:54:59.195Z,12.05
2017-11-25T22:57:26.677Z,11.98
2017-11-25T22:59:54.154Z,12.52
2017-11-25T23:02:22.508Z,12.25
2017-11-25T23:04:50.743Z,13.52
2017-11-25T23:07:18.215Z,12.43
2017-11-25T23:09:45.683Z,12.35
2017-11-25T23:12:13.255Z,12.90
2017-11-25T23:14:40.720Z,12.55
2017-11-25T23:17:08.216Z,13.18
2017-11-25T23:19:35.726Z,14.40
2017-11-25T23:22:03.191Z,11.65
2017-11-25T23:24:30.656Z,13.95
2017-11-25T23:26:58.938Z,12.10
2017-11-25T23:29:27.182Z,12.27
2017-11-25T23:31:54.651Z,12.18
2017-11-25T23:34:22.891Z,14.30
2017-11-25T23:36:50.380Z,12.77
2017-11-25T23:39:17.945Z,12.37
2017-11-25T23:41:45.452Z,14.07
2017-11-25T23:44:12.924Z,10.88
2017-11-25T23:46:40.406Z,11.85
2017-11-25T23:49:07.872Z,12.07
2017-11-25T23:51:35.434Z,12.45
2017-11-25T23:54:02.993Z,12.93
2017-11-25T23:56:30.550Z,11.60
2017-11-25T23:58:58.019Z,12.75
